Historyczne dane pomiarowe

Dodano dane terminowe – wersja testowa.

Dane z okresu 1951-2019

Wersja bazy: 1.34 [2019-03-16, lista zmian], aktualizacja planowana na 2019-04-15

Dane meteo z obszaru Polski uzyskane na podstawie danych udostępnionych przez Instytut Meteorologii i Gospodarki Wodnej – Państwowy Instytut Badawczy.

 

Wybierz Datę:    

       

TemperaturaWilgotnośćWiatrCiśnienieOpadyŚniegCzas trwania zjawisk
 Stacja t tx tn tng RH VA  wxwx mslp ppp RRR   cm mm wxwxwxwxwxwxwx
2015-09-11 15.2 20.7 10.5 8.2 66.5- 7.0 4.3---- 2.7------------
2015-09-12 13.4 17.2 11.1 10.9 93.3- 8.0 3.3---- 0.2------------
2015-09-13 13.4 18.3 7.5 6.4 88.8- 6.0 5.0---- 0.0------------
2015-09-14 16.7 23.6 9.6 8.9 76.0- 6.0 5.0---- 1.7------------
2015-09-15 18.0 23.3 13.5 11.1 83.0- 6.7 2.7---- 5.3------------
2015-09-16 19.6 26.3 14.7 11.9 83.5- 5.3 2.0---- 0.0------------
2015-09-17 21.1 30.1 14.2 11.1 76.0- 3.7 2.0---- 0.0------------
2015-09-18 17.5 23.9 14.0 12.4 75.3- 7.3 1.7---- 0.2------------
2015-09-19 15.4 22.3 10.5 7.4 82.5- 2.3 1.7---- 0.0------------
2015-09-20 13.6 18.4 9.7 7.3 84.5- 6.3 1.3---- 0.0------------
2015-09-21 10.4 15.0 6.9 3.9 85.8- 5.7 2.3---- 0.0------------
2015-09-22 9.6 18.6 3.0 0.0 82.0- 3.7 2.7---- 0.0------------
2015-09-23 14.3 23.0 7.5 4.3 76.8- 6.7 2.0---- 0.0------------
2015-09-24 15.6 21.8 10.2 6.4 78.3- 5.7 2.3---- 0.0------------
2015-09-25 15.3 19.8 11.5 10.9 75.8- 7.7 2.3---- 0.5------------
2015-09-26 14.0 17.0 11.5 11.1 82.8- 8.0 2.7---- 0.0------------
2015-09-27 10.2 17.3 5.4 3.4 83.3- 3.3 2.3---- 0.0------------
2015-09-28 9.7 17.1 4.2 1.5 83.8- 3.7 2.3---- 0.0------------
2015-09-29 9.3 14.4 4.5 1.9 79.8- 7.7 2.0---- 0.0------------
2015-09-30 9.8 15.0 6.5 0.9 68.3- 6.0 2.3---- 0.0------------
2015-10-01 6.5 16.6 -1.1 -4.1 78.8- 2.0 1.3---- 0.0------------
2015-10-02 9.3 20.0 2.7 -1.5 73.0- 4.0 2.0---- 0.0------------
2015-10-03 9.6 21.4 -0.7 -3.7 69.8- 3.3 2.3---- 0.0------------
2015-10-04 14.9 22.9 8.9 3.9 74.5- 1.0 2.3---- 0.0------------
2015-10-05 12.2 19.9 6.6 3.4 82.3- 3.3 2.3---- 0.0------------
2015-10-06 10.6 17.8 3.2 0.8 89.3- 5.7 1.7---- 0.0------------
2015-10-07 7.6 13.4 4.5 3.4 60.8- 4.3 5.0---- 0.0------------
2015-10-08 2.8 12.0 -3.5 -6.6 66.8- 2.7 2.7---- 0.0------------
2015-10-09 0.8 9.9 -6.0-10.7 70.3- 1.7 2.7---- 0.0------------
2015-10-10 -0.4 9.3 -8.0-11.9 73.3- 0.7 2.0---- 0.0------------
71.6 ms

 

Źródłem pochodzenia danych jest Instytut Meteorologii i Gospodarki Wodnej – Państwowy Instytut Badawczy. Dane Instytutu Meteorologii i Gospodarki Wodnej – Państwowego Instytutu Badawczego zostały przetworzone.

Dane źródłowe można odnaleźć na stronie https://dane.imgw.pl